sensor_id;sensor_type;location;lat;lon;timestamp;P1;durP1;ratioP1;P2;durP2;ratioP2
33987;SDS011;37428;53.580;-1.666;2023-05-18T00:01:32;6.25;;;4.40;;
33987;SDS011;37428;53.580;-1.666;2023-05-18T00:04:39;6.10;;;4.05;;
33987;SDS011;37428;53.580;-1.666;2023-05-18T00:07:43;4.97;;;4.30;;
33987;SDS011;37428;53.580;-1.666;2023-05-18T00:10:47;5.22;;;4.35;;
33987;SDS011;37428;53.580;-1.666;2023-05-18T00:13:50;6.18;;;5.25;;
33987;SDS011;37428;53.580;-1.666;2023-05-18T00:16:52;5.72;;;4.63;;
33987;SDS011;37428;53.580;-1.666;2023-05-18T00:19:54;7.32;;;5.35;;
33987;SDS011;37428;53.580;-1.666;2023-05-18T00:22:59;6.13;;;4.53;;
33987;SDS011;37428;53.580;-1.666;2023-05-18T00:26:01;5.05;;;4.35;;
33987;SDS011;37428;53.580;-1.666;2023-05-18T00:29:03;7.70;;;4.70;;
33987;SDS011;37428;53.580;-1.666;2023-05-18T00:32:05;5.75;;;4.03;;
33987;SDS011;37428;53.580;-1.666;2023-05-18T00:35:07;7.90;;;3.80;;
33987;SDS011;37428;53.580;-1.666;2023-05-18T00:38:11;6.78;;;4.55;;
33987;SDS011;37428;53.580;-1.666;2023-05-18T00:41:14;5.38;;;4.20;;
33987;SDS011;37428;53.580;-1.666;2023-05-18T00:44:16;4.70;;;3.88;;
33987;SDS011;37428;53.580;-1.666;2023-05-18T00:47:19;5.80;;;4.57;;
33987;SDS011;37428;53.580;-1.666;2023-05-18T00:50:21;8.52;;;4.78;;
33987;SDS011;37428;53.580;-1.666;2023-05-18T00:53:25;6.43;;;4.15;;
33987;SDS011;37428;53.580;-1.666;2023-05-18T00:56:29;6.82;;;4.55;;
33987;SDS011;37428;53.580;-1.666;2023-05-18T00:59:35;6.40;;;4.20;;
33987;SDS011;37428;53.580;-1.666;2023-05-18T01:02:39;6.30;;;4.53;;
33987;SDS011;37428;53.580;-1.666;2023-05-18T01:05:44;6.82;;;4.43;;
33987;SDS011;37428;53.580;-1.666;2023-05-18T01:08:50;7.22;;;4.75;;
33987;SDS011;37428;53.580;-1.666;2023-05-18T01:11:55;4.18;;;3.70;;
33987;SDS011;37428;53.580;-1.666;2023-05-18T01:15:05;5.32;;;4.00;;
33987;SDS011;37428;53.580;-1.666;2023-05-18T01:18:15;5.07;;;3.78;;
33987;SDS011;37428;53.580;-1.666;2023-05-18T01:21:29;6.78;;;3.90;;
33987;SDS011;37428;53.580;-1.666;2023-05-18T01:24:47;6.43;;;4.85;;
33987;SDS011;37428;53.580;-1.666;2023-05-18T01:27:53;6.75;;;4.15;;
33987;SDS011;37428;53.580;-1.666;2023-05-18T01:30:59;6.70;;;3.83;;
33987;SDS011;37428;53.580;-1.666;2023-05-18T01:34:01;5.20;;;3.60;;
33987;SDS011;37428;53.580;-1.666;2023-05-18T01:37:03;4.90;;;3.58;;
33987;SDS011;37428;53.580;-1.666;2023-05-18T01:40:06;4.45;;;3.90;;
33987;SDS011;37428;53.580;-1.666;2023-05-18T01:43:11;5.60;;;3.63;;
33987;SDS011;37428;53.580;-1.666;2023-05-18T01:46:21;4.72;;;3.78;;
33987;SDS011;37428;53.580;-1.666;2023-05-18T01:49:34;4.97;;;3.85;;
33987;SDS011;37428;53.580;-1.666;2023-05-18T01:52:40;6.13;;;3.97;;
33987;SDS011;37428;53.580;-1.666;2023-05-18T01:55:45;4.88;;;3.83;;
33987;SDS011;37428;53.580;-1.666;2023-05-18T01:58:51;6.60;;;4.20;;
33987;SDS011;37428;53.580;-1.666;2023-05-18T02:01:56;4.93;;;3.67;;
33987;SDS011;37428;53.580;-1.666;2023-05-18T02:05:00;5.38;;;3.63;;
33987;SDS011;37428;53.580;-1.666;2023-05-18T02:08:04;5.22;;;4.05;;
33987;SDS011;37428;53.580;-1.666;2023-05-18T02:11:08;5.35;;;3.80;;
33987;SDS011;37428;53.580;-1.666;2023-05-18T02:14:12;6.85;;;4.28;;
33987;SDS011;37428;53.580;-1.666;2023-05-18T02:17:14;6.50;;;4.38;;
33987;SDS011;37428;53.580;-1.666;2023-05-18T02:20:16;5.53;;;3.53;;
33987;SDS011;37428;53.580;-1.666;2023-05-18T02:23:19;5.65;;;4.35;;
33987;SDS011;37428;53.580;-1.666;2023-05-18T02:26:21;5.20;;;3.70;;
33987;SDS011;37428;53.580;-1.666;2023-05-18T02:29:24;5.38;;;3.85;;
33987;SDS011;37428;53.580;-1.666;2023-05-18T02:32:26;8.45;;;4.15;;
33987;SDS011;37428;53.580;-1.666;2023-05-18T02:35:31;6.75;;;4.05;;
33987;SDS011;37428;53.580;-1.666;2023-05-18T02:38:35;4.57;;;4.15;;
33987;SDS011;37428;53.580;-1.666;2023-05-18T02:41:37;4.82;;;3.75;;
33987;SDS011;37428;53.580;-1.666;2023-05-18T02:44:41;5.65;;;4.50;;
33987;SDS011;37428;53.580;-1.666;2023-05-18T02:47:44;6.55;;;4.32;;
33987;SDS011;37428;53.580;-1.666;2023-05-18T02:50:47;5.65;;;3.70;;
33987;SDS011;37428;53.580;-1.666;2023-05-18T02:53:50;7.00;;;4.45;;
33987;SDS011;37428;53.580;-1.666;2023-05-18T02:56:52;7.18;;;4.13;;
33987;SDS011;37428;53.580;-1.666;2023-05-18T02:59:57;5.07;;;3.90;;
33987;SDS011;37428;53.580;-1.666;2023-05-18T03:02:59;7.03;;;3.75;;
33987;SDS011;37428;53.580;-1.666;2023-05-18T03:06:01;4.25;;;3.47;;
33987;SDS011;37428;53.580;-1.666;2023-05-18T03:09:05;4.88;;;3.53;;
33987;SDS011;37428;53.580;-1.666;2023-05-18T03:12:07;4.22;;;3.15;;
33987;SDS011;37428;53.580;-1.666;2023-05-18T03:18:15;7.68;;;4.28;;
33987;SDS011;37428;53.580;-1.666;2023-05-18T03:21:18;7.72;;;3.53;;
33987;SDS011;37428;53.580;-1.666;2023-05-18T03:24:20;6.45;;;4.40;;
33987;SDS011;37428;53.580;-1.666;2023-05-18T03:27:25;4.90;;;3.38;;
33987;SDS011;37428;53.580;-1.666;2023-05-18T03:30:28;5.05;;;3.80;;
33987;SDS011;37428;53.580;-1.666;2023-05-18T03:33:31;4.90;;;3.80;;
33987;SDS011;37428;53.580;-1.666;2023-05-18T03:36:34;4.95;;;4.00;;
33987;SDS011;37428;53.580;-1.666;2023-05-18T03:39:37;5.72;;;4.05;;
33987;SDS011;37428;53.580;-1.666;2023-05-18T03:42:39;9.35;;;4.38;;
33987;SDS011;37428;53.580;-1.666;2023-05-18T03:48:45;5.20;;;4.22;;
33987;SDS011;37428;53.580;-1.666;2023-05-18T03:51:48;7.55;;;4.22;;
33987;SDS011;37428;53.580;-1.666;2023-05-18T03:54:50;4.65;;;3.70;;
33987;SDS011;37428;53.580;-1.666;2023-05-18T03:57:52;7.38;;;4.78;;
33987;SDS011;37428;53.580;-1.666;2023-05-18T04:00:56;4.95;;;3.97;;
33987;SDS011;37428;53.580;-1.666;2023-05-18T04:03:59;7.32;;;4.85;;
33987;SDS011;37428;53.580;-1.666;2023-05-18T04:07:01;6.40;;;4.28;;
33987;SDS011;37428;53.580;-1.666;2023-05-18T04:10:05;8.27;;;4.45;;
33987;SDS011;37428;53.580;-1.666;2023-05-18T04:13:08;6.78;;;4.75;;
33987;SDS011;37428;53.580;-1.666;2023-05-18T04:16:14;6.80;;;5.00;;
33987;SDS011;37428;53.580;-1.666;2023-05-18T04:19:17;6.95;;;4.22;;
33987;SDS011;37428;53.580;-1.666;2023-05-18T04:22:20;7.43;;;4.88;;
33987;SDS011;37428;53.580;-1.666;2023-05-18T04:25:23;9.02;;;4.15;;
33987;SDS011;37428;53.580;-1.666;2023-05-18T04:28:26;7.18;;;5.32;;
33987;SDS011;37428;53.580;-1.666;2023-05-18T04:31:33;8.40;;;4.35;;
33987;SDS011;37428;53.580;-1.666;2023-05-18T04:34:35;10.57;;;5.20;;
33987;SDS011;37428;53.580;-1.666;2023-05-18T04:37:37;5.10;;;4.60;;
33987;SDS011;37428;53.580;-1.666;2023-05-18T04:40:40;8.65;;;5.45;;
33987;SDS011;37428;53.580;-1.666;2023-05-18T04:43:42;7.28;;;4.15;;
33987;SDS011;37428;53.580;-1.666;2023-05-18T04:46:46;6.00;;;4.50;;
33987;SDS011;37428;53.580;-1.666;2023-05-18T04:49:49;5.35;;;4.22;;
33987;SDS011;37428;53.580;-1.666;2023-05-18T04:52:52;8.25;;;4.35;;
33987;SDS011;37428;53.580;-1.666;2023-05-18T04:55:57;4.97;;;4.00;;
33987;SDS011;37428;53.580;-1.666;2023-05-18T04:59:00;4.85;;;4.13;;
33987;SDS011;37428;53.580;-1.666;2023-05-18T05:02:04;6.35;;;4.28;;
33987;SDS011;37428;53.580;-1.666;2023-05-18T05:05:06;7.85;;;4.68;;
33987;SDS011;37428;53.580;-1.666;2023-05-18T05:08:08;8.18;;;4.97;;
33987;SDS011;37428;53.580;-1.666;2023-05-18T05:11:11;6.68;;;4.40;;
33987;SDS011;37428;53.580;-1.666;2023-05-18T05:14:13;5.82;;;4.20;;
33987;SDS011;37428;53.580;-1.666;2023-05-18T05:17:17;7.32;;;4.35;;
33987;SDS011;37428;53.580;-1.666;2023-05-18T05:20:19;6.68;;;5.07;;
33987;SDS011;37428;53.580;-1.666;2023-05-18T05:26:23;6.75;;;4.72;;
33987;SDS011;37428;53.580;-1.666;2023-05-18T05:29:26;9.50;;;5.30;;
33987;SDS011;37428;53.580;-1.666;2023-05-18T05:32:29;9.38;;;4.75;;
33987;SDS011;37428;53.580;-1.666;2023-05-18T05:35:31;7.75;;;4.90;;
33987;SDS011;37428;53.580;-1.666;2023-05-18T05:38:33;8.15;;;4.68;;
33987;SDS011;37428;53.580;-1.666;2023-05-18T05:41:38;8.02;;;4.35;;
33987;SDS011;37428;53.580;-1.666;2023-05-18T05:44:40;6.22;;;3.90;;
33987;SDS011;37428;53.580;-1.666;2023-05-18T05:47:44;7.07;;;5.68;;
33987;SDS011;37428;53.580;-1.666;2023-05-18T05:50:46;6.85;;;5.63;;
33987;SDS011;37428;53.580;-1.666;2023-05-18T05:53:48;8.48;;;5.90;;
33987;SDS011;37428;53.580;-1.666;2023-05-18T05:56:50;7.22;;;5.40;;
33987;SDS011;37428;53.580;-1.666;2023-05-18T05:59:52;8.00;;;5.88;;
33987;SDS011;37428;53.580;-1.666;2023-05-18T06:02:56;6.70;;;5.40;;
33987;SDS011;37428;53.580;-1.666;2023-05-18T06:05:59;10.25;;;6.43;;
33987;SDS011;37428;53.580;-1.666;2023-05-18T06:09:01;12.45;;;6.97;;
33987;SDS011;37428;53.580;-1.666;2023-05-18T06:12:05;8.07;;;5.45;;
33987;SDS011;37428;53.580;-1.666;2023-05-18T06:15:08;8.60;;;5.65;;
33987;SDS011;37428;53.580;-1.666;2023-05-18T06:18:12;6.40;;;5.10;;
33987;SDS011;37428;53.580;-1.666;2023-05-18T06:21:15;9.13;;;5.43;;
33987;SDS011;37428;53.580;-1.666;2023-05-18T06:24:17;9.52;;;6.15;;
33987;SDS011;37428;53.580;-1.666;2023-05-18T06:30:22;10.75;;;6.40;;
33987;SDS011;37428;53.580;-1.666;2023-05-18T06:33:25;9.40;;;4.70;;
33987;SDS011;37428;53.580;-1.666;2023-05-18T06:36:28;10.07;;;5.65;;
33987;SDS011;37428;53.580;-1.666;2023-05-18T06:39:31;6.93;;;5.22;;
33987;SDS011;37428;53.580;-1.666;2023-05-18T06:42:33;7.93;;;5.78;;
33987;SDS011;37428;53.580;-1.666;2023-05-18T06:45:35;6.10;;;5.47;;
33987;SDS011;37428;53.580;-1.666;2023-05-18T06:48:39;9.05;;;5.93;;
33987;SDS011;37428;53.580;-1.666;2023-05-18T06:51:43;6.85;;;5.22;;
33987;SDS011;37428;53.580;-1.666;2023-05-18T06:54:45;9.88;;;5.72;;
33987;SDS011;37428;53.580;-1.666;2023-05-18T06:57:48;8.82;;;5.68;;
33987;SDS011;37428;53.580;-1.666;2023-05-18T07:00:55;15.32;;;5.93;;
33987;SDS011;37428;53.580;-1.666;2023-05-18T07:03:59;7.63;;;5.53;;
33987;SDS011;37428;53.580;-1.666;2023-05-18T07:07:01;13.38;;;5.32;;
33987;SDS011;37428;53.580;-1.666;2023-05-18T07:10:04;10.75;;;6.35;;
33987;SDS011;37428;53.580;-1.666;2023-05-18T07:13:07;11.05;;;5.45;;
33987;SDS011;37428;53.580;-1.666;2023-05-18T07:16:09;9.80;;;6.18;;
33987;SDS011;37428;53.580;-1.666;2023-05-18T07:19:15;13.63;;;6.00;;
33987;SDS011;37428;53.580;-1.666;2023-05-18T07:22:17;8.48;;;5.70;;
33987;SDS011;37428;53.580;-1.666;2023-05-18T07:25:19;6.63;;;4.95;;
33987;SDS011;37428;53.580;-1.666;2023-05-18T07:28:22;11.10;;;5.05;;
33987;SDS011;37428;53.580;-1.666;2023-05-18T07:31:25;6.53;;;4.63;;
33987;SDS011;37428;53.580;-1.666;2023-05-18T07:34:28;8.48;;;4.57;;
33987;SDS011;37428;53.580;-1.666;2023-05-18T07:37:31;7.68;;;4.88;;
33987;SDS011;37428;53.580;-1.666;2023-05-18T07:40:33;6.25;;;4.93;;
33987;SDS011;37428;53.580;-1.666;2023-05-18T07:43:35;8.98;;;4.78;;
33987;SDS011;37428;53.580;-1.666;2023-05-18T07:46:37;9.05;;;5.30;;
33987;SDS011;37428;53.580;-1.666;2023-05-18T07:49:43;10.48;;;4.55;;
33987;SDS011;37428;53.580;-1.666;2023-05-18T07:52:46;9.20;;;4.30;;
33987;SDS011;37428;53.580;-1.666;2023-05-18T07:55:49;6.90;;;5.00;;
33987;SDS011;37428;53.580;-1.666;2023-05-18T07:58:51;7.07;;;5.07;;
33987;SDS011;37428;53.580;-1.666;2023-05-18T08:01:53;8.00;;;4.32;;
33987;SDS011;37428;53.580;-1.666;2023-05-18T08:04:59;8.25;;;4.35;;
33987;SDS011;37428;53.580;-1.666;2023-05-18T08:08:07;9.73;;;5.28;;
33987;SDS011;37428;53.580;-1.666;2023-05-18T08:11:10;8.00;;;4.15;;
33987;SDS011;37428;53.580;-1.666;2023-05-18T08:14:13;8.10;;;4.80;;
33987;SDS011;37428;53.580;-1.666;2023-05-18T08:17:15;6.03;;;5.10;;
33987;SDS011;37428;53.580;-1.666;2023-05-18T08:20:22;6.88;;;4.72;;
33987;SDS011;37428;53.580;-1.666;2023-05-18T08:23:25;7.60;;;4.40;;
33987;SDS011;37428;53.580;-1.666;2023-05-18T08:26:27;8.77;;;5.05;;
33987;SDS011;37428;53.580;-1.666;2023-05-18T08:29:29;6.28;;;4.70;;
33987;SDS011;37428;53.580;-1.666;2023-05-18T08:32:31;10.07;;;4.53;;
33987;SDS011;37428;53.580;-1.666;2023-05-18T08:35:37;6.05;;;4.57;;
33987;SDS011;37428;53.580;-1.666;2023-05-18T08:38:42;6.70;;;4.68;;
33987;SDS011;37428;53.580;-1.666;2023-05-18T08:41:47;8.35;;;5.10;;
33987;SDS011;37428;53.580;-1.666;2023-05-18T08:44:57;7.47;;;4.78;;
33987;SDS011;37428;53.580;-1.666;2023-05-18T08:48:07;7.97;;;4.97;;
33987;SDS011;37428;53.580;-1.666;2023-05-18T08:51:12;7.90;;;4.88;;
33987;SDS011;37428;53.580;-1.666;2023-05-18T08:54:22;10.88;;;5.53;;
33987;SDS011;37428;53.580;-1.666;2023-05-18T08:57:24;10.20;;;5.65;;
33987;SDS011;37428;53.580;-1.666;2023-05-18T09:00:29;6.47;;;5.07;;
33987;SDS011;37428;53.580;-1.666;2023-05-18T09:03:33;5.20;;;4.40;;
33987;SDS011;37428;53.580;-1.666;2023-05-18T09:06:36;6.35;;;4.82;;
33987;SDS011;37428;53.580;-1.666;2023-05-18T09:09:39;8.63;;;5.07;;
33987;SDS011;37428;53.580;-1.666;2023-05-18T09:12:42;4.95;;;4.32;;
33987;SDS011;37428;53.580;-1.666;2023-05-18T09:15:52;9.95;;;5.78;;
33987;SDS011;37428;53.580;-1.666;2023-05-18T09:18:54;10.20;;;5.15;;
33987;SDS011;37428;53.580;-1.666;2023-05-18T09:21:57;7.05;;;4.10;;
33987;SDS011;37428;53.580;-1.666;2023-05-18T09:24:59;5.50;;;4.03;;
33987;SDS011;37428;53.580;-1.666;2023-05-18T09:28:02;5.22;;;3.95;;
33987;SDS011;37428;53.580;-1.666;2023-05-18T09:31:05;10.00;;;4.88;;
33987;SDS011;37428;53.580;-1.666;2023-05-18T09:34:08;6.00;;;4.50;;
33987;SDS011;37428;53.580;-1.666;2023-05-18T09:37:14;5.40;;;3.85;;
33987;SDS011;37428;53.580;-1.666;2023-05-18T09:40:17;6.60;;;4.97;;
33987;SDS011;37428;53.580;-1.666;2023-05-18T09:43:19;8.52;;;4.28;;
33987;SDS011;37428;53.580;-1.666;2023-05-18T09:46:21;6.85;;;4.88;;
33987;SDS011;37428;53.580;-1.666;2023-05-18T09:49:23;8.00;;;5.03;;
33987;SDS011;37428;53.580;-1.666;2023-05-18T09:52:27;10.05;;;5.45;;
33987;SDS011;37428;53.580;-1.666;2023-05-18T09:55:30;7.10;;;4.78;;
33987;SDS011;37428;53.580;-1.666;2023-05-18T09:58:32;8.70;;;4.95;;
33987;SDS011;37428;53.580;-1.666;2023-05-18T10:01:35;6.63;;;4.60;;
33987;SDS011;37428;53.580;-1.666;2023-05-18T10:04:37;7.07;;;5.00;;
33987;SDS011;37428;53.580;-1.666;2023-05-18T10:07:42;8.20;;;4.82;;
33987;SDS011;37428;53.580;-1.666;2023-05-18T10:10:46;8.15;;;4.90;;
33987;SDS011;37428;53.580;-1.666;2023-05-18T10:13:52;6.68;;;5.00;;
33987;SDS011;37428;53.580;-1.666;2023-05-18T10:16:55;6.95;;;4.97;;
33987;SDS011;37428;53.580;-1.666;2023-05-18T10:19:57;5.72;;;4.50;;
33987;SDS011;37428;53.580;-1.666;2023-05-18T10:26:05;7.85;;;4.82;;
33987;SDS011;37428;53.580;-1.666;2023-05-18T10:29:09;11.48;;;5.72;;
33987;SDS011;37428;53.580;-1.666;2023-05-18T10:32:11;13.65;;;5.88;;
33987;SDS011;37428;53.580;-1.666;2023-05-18T10:35:15;6.75;;;5.05;;
33987;SDS011;37428;53.580;-1.666;2023-05-18T10:38:20;8.70;;;5.63;;
33987;SDS011;37428;53.580;-1.666;2023-05-18T10:41:24;5.63;;;4.53;;
33987;SDS011;37428;53.580;-1.666;2023-05-18T10:44:28;9.95;;;5.63;;
33987;SDS011;37428;53.580;-1.666;2023-05-18T10:47:30;10.55;;;6.03;;
33987;SDS011;37428;53.580;-1.666;2023-05-18T10:50:38;7.03;;;4.70;;
33987;SDS011;37428;53.580;-1.666;2023-05-18T10:53:43;8.23;;;5.25;;
33987;SDS011;37428;53.580;-1.666;2023-05-18T10:56:47;12.07;;;6.30;;
33987;SDS011;37428;53.580;-1.666;2023-05-18T10:59:52;6.22;;;4.85;;
33987;SDS011;37428;53.580;-1.666;2023-05-18T11:02:54;7.72;;;5.30;;
33987;SDS011;37428;53.580;-1.666;2023-05-18T11:06:03;5.95;;;4.95;;
33987;SDS011;37428;53.580;-1.666;2023-05-18T11:09:09;6.78;;;4.68;;
33987;SDS011;37428;53.580;-1.666;2023-05-18T11:12:23;5.55;;;4.97;;
33987;SDS011;37428;53.580;-1.666;2023-05-18T11:19:04;7.78;;;5.30;;
33987;SDS011;37428;53.580;-1.666;2023-05-18T11:22:10;9.00;;;5.28;;
33987;SDS011;37428;53.580;-1.666;2023-05-18T11:28:41;13.90;;;5.85;;
33987;SDS011;37428;53.580;-1.666;2023-05-18T11:31:43;8.93;;;5.07;;
33987;SDS011;37428;53.580;-1.666;2023-05-18T11:34:48;9.50;;;5.43;;
33987;SDS011;37428;53.580;-1.666;2023-05-18T11:37:51;8.32;;;5.75;;
33987;SDS011;37428;53.580;-1.666;2023-05-18T11:40:55;9.27;;;5.65;;
33987;SDS011;37428;53.580;-1.666;2023-05-18T11:44:03;16.98;;;5.38;;
33987;SDS011;37428;53.580;-1.666;2023-05-18T11:47:15;11.48;;;5.90;;
33987;SDS011;37428;53.580;-1.666;2023-05-18T11:50:19;8.18;;;5.30;;
33987;SDS011;37428;53.580;-1.666;2023-05-18T11:53:22;9.05;;;5.68;;
33987;SDS011;37428;53.580;-1.666;2023-05-18T11:56:26;9.90;;;6.20;;
33987;SDS011;37428;53.580;-1.666;2023-05-18T11:59:35;8.48;;;4.50;;
33987;SDS011;37428;53.580;-1.666;2023-05-18T12:02:41;9.00;;;6.10;;
33987;SDS011;37428;53.580;-1.666;2023-05-18T12:05:44;9.65;;;5.65;;
33987;SDS011;37428;53.580;-1.666;2023-05-18T12:08:48;8.65;;;5.90;;
33987;SDS011;37428;53.580;-1.666;2023-05-18T12:11:53;7.65;;;5.10;;
33987;SDS011;37428;53.580;-1.666;2023-05-18T12:14:56;9.52;;;6.10;;
33987;SDS011;37428;53.580;-1.666;2023-05-18T12:17:59;11.15;;;5.63;;
33987;SDS011;37428;53.580;-1.666;2023-05-18T12:21:02;9.77;;;5.75;;
33987;SDS011;37428;53.580;-1.666;2023-05-18T12:24:06;8.50;;;5.32;;
33987;SDS011;37428;53.580;-1.666;2023-05-18T12:27:13;8.90;;;5.35;;
33987;SDS011;37428;53.580;-1.666;2023-05-18T12:30:16;9.60;;;6.25;;
33987;SDS011;37428;53.580;-1.666;2023-05-18T12:33:19;8.65;;;6.50;;
33987;SDS011;37428;53.580;-1.666;2023-05-18T12:42:28;7.75;;;5.35;;
33987;SDS011;37428;53.580;-1.666;2023-05-18T12:45:30;13.48;;;6.63;;
33987;SDS011;37428;53.580;-1.666;2023-05-18T12:48:34;8.95;;;5.28;;
33987;SDS011;37428;53.580;-1.666;2023-05-18T12:51:38;7.78;;;5.68;;
33987;SDS011;37428;53.580;-1.666;2023-05-18T12:54:46;9.13;;;5.65;;
33987;SDS011;37428;53.580;-1.666;2023-05-18T12:57:59;5.80;;;5.07;;
33987;SDS011;37428;53.580;-1.666;2023-05-18T13:01:07;8.50;;;5.38;;
33987;SDS011;37428;53.580;-1.666;2023-05-18T13:04:10;9.25;;;5.03;;
33987;SDS011;37428;53.580;-1.666;2023-05-18T13:10:15;6.05;;;4.85;;
33987;SDS011;37428;53.580;-1.666;2023-05-18T13:13:20;8.43;;;5.47;;
33987;SDS011;37428;53.580;-1.666;2023-05-18T13:16:22;6.78;;;5.82;;
33987;SDS011;37428;53.580;-1.666;2023-05-18T13:19:24;7.07;;;4.65;;
33987;SDS011;37428;53.580;-1.666;2023-05-18T13:22:27;9.23;;;5.45;;
33987;SDS011;37428;53.580;-1.666;2023-05-18T13:25:30;7.20;;;5.20;;
33987;SDS011;37428;53.580;-1.666;2023-05-18T13:28:34;6.30;;;5.63;;
33987;SDS011;37428;53.580;-1.666;2023-05-18T13:31:36;9.80;;;6.25;;
33987;SDS011;37428;53.580;-1.666;2023-05-18T13:34:38;10.98;;;7.65;;
33987;SDS011;37428;53.580;-1.666;2023-05-18T13:37:42;9.93;;;7.32;;
33987;SDS011;37428;53.580;-1.666;2023-05-18T13:40:45;11.27;;;7.65;;
33987;SDS011;37428;53.580;-1.666;2023-05-18T13:43:49;10.80;;;7.90;;
33987;SDS011;37428;53.580;-1.666;2023-05-18T13:46:51;9.63;;;7.35;;
33987;SDS011;37428;53.580;-1.666;2023-05-18T13:49:53;12.57;;;8.00;;
33987;SDS011;37428;53.580;-1.666;2023-05-18T13:52:55;25.90;;;8.73;;
33987;SDS011;37428;53.580;-1.666;2023-05-18T13:55:57;14.57;;;8.00;;
33987;SDS011;37428;53.580;-1.666;2023-05-18T13:59:01;19.88;;;8.90;;
33987;SDS011;37428;53.580;-1.666;2023-05-18T14:02:03;11.75;;;7.65;;
33987;SDS011;37428;53.580;-1.666;2023-05-18T14:05:06;8.90;;;7.68;;
33987;SDS011;37428;53.580;-1.666;2023-05-18T14:08:08;10.98;;;7.97;;
33987;SDS011;37428;53.580;-1.666;2023-05-18T14:11:10;12.60;;;8.77;;
33987;SDS011;37428;53.580;-1.666;2023-05-18T14:14:14;13.90;;;8.65;;
33987;SDS011;37428;53.580;-1.666;2023-05-18T14:17:16;21.55;;;9.95;;
33987;SDS011;37428;53.580;-1.666;2023-05-18T14:20:18;12.10;;;8.73;;
33987;SDS011;37428;53.580;-1.666;2023-05-18T14:23:20;19.73;;;10.05;;
33987;SDS011;37428;53.580;-1.666;2023-05-18T14:26:23;12.65;;;8.75;;
33987;SDS011;37428;53.580;-1.666;2023-05-18T14:29:27;19.77;;;8.10;;
33987;SDS011;37428;53.580;-1.666;2023-05-18T14:32:29;14.43;;;8.07;;
33987;SDS011;37428;53.580;-1.666;2023-05-18T14:35:31;11.27;;;7.65;;
33987;SDS011;37428;53.580;-1.666;2023-05-18T14:38:33;11.80;;;8.35;;
33987;SDS011;37428;53.580;-1.666;2023-05-18T14:41:35;15.10;;;8.05;;
33987;SDS011;37428;53.580;-1.666;2023-05-18T14:44:39;9.88;;;7.75;;
33987;SDS011;37428;53.580;-1.666;2023-05-18T14:47:41;13.68;;;8.18;;
33987;SDS011;37428;53.580;-1.666;2023-05-18T14:50:43;12.23;;;8.73;;
33987;SDS011;37428;53.580;-1.666;2023-05-18T14:53:45;10.95;;;7.85;;
33987;SDS011;37428;53.580;-1.666;2023-05-18T14:56:47;12.20;;;8.27;;
33987;SDS011;37428;53.580;-1.666;2023-05-18T14:59:51;13.75;;;7.78;;
33987;SDS011;37428;53.580;-1.666;2023-05-18T15:02:54;15.13;;;7.95;;
33987;SDS011;37428;53.580;-1.666;2023-05-18T15:08:58;8.10;;;6.18;;
33987;SDS011;37428;53.580;-1.666;2023-05-18T15:12:01;12.57;;;6.43;;
33987;SDS011;37428;53.580;-1.666;2023-05-18T15:15:05;10.43;;;6.03;;
33987;SDS011;37428;53.580;-1.666;2023-05-18T15:18:08;8.25;;;6.20;;
33987;SDS011;37428;53.580;-1.666;2023-05-18T15:21:10;9.80;;;7.07;;
33987;SDS011;37428;53.580;-1.666;2023-05-18T15:24:13;9.68;;;6.65;;
33987;SDS011;37428;53.580;-1.666;2023-05-18T15:27:15;8.00;;;6.70;;
33987;SDS011;37428;53.580;-1.666;2023-05-18T15:30:19;9.43;;;6.97;;
33987;SDS011;37428;53.580;-1.666;2023-05-18T15:33:22;12.13;;;6.35;;
33987;SDS011;37428;53.580;-1.666;2023-05-18T15:36:24;10.82;;;8.15;;
33987;SDS011;37428;53.580;-1.666;2023-05-18T15:39:26;11.75;;;7.28;;
33987;SDS011;37428;53.580;-1.666;2023-05-18T15:42:30;14.60;;;6.88;;
33987;SDS011;37428;53.580;-1.666;2023-05-18T15:48:38;9.95;;;6.70;;
33987;SDS011;37428;53.580;-1.666;2023-05-18T15:51:40;11.73;;;7.20;;
33987;SDS011;37428;53.580;-1.666;2023-05-18T15:54:42;9.68;;;7.18;;
33987;SDS011;37428;53.580;-1.666;2023-05-18T16:00:48;13.20;;;6.88;;
33987;SDS011;37428;53.580;-1.666;2023-05-18T16:03:50;12.45;;;7.93;;
33987;SDS011;37428;53.580;-1.666;2023-05-18T16:06:52;11.38;;;6.78;;
33987;SDS011;37428;53.580;-1.666;2023-05-18T16:09:56;11.27;;;7.13;;
33987;SDS011;37428;53.580;-1.666;2023-05-18T16:12:58;10.45;;;7.47;;
33987;SDS011;37428;53.580;-1.666;2023-05-18T16:16:06;13.32;;;8.25;;
33987;SDS011;37428;53.580;-1.666;2023-05-18T16:19:09;10.23;;;6.75;;
33987;SDS011;37428;53.580;-1.666;2023-05-18T16:22:11;11.50;;;6.93;;
33987;SDS011;37428;53.580;-1.666;2023-05-18T16:25:13;15.32;;;8.15;;
33987;SDS011;37428;53.580;-1.666;2023-05-18T16:28:16;11.90;;;6.40;;
33987;SDS011;37428;53.580;-1.666;2023-05-18T16:31:19;14.13;;;7.70;;
33987;SDS011;37428;53.580;-1.666;2023-05-18T16:34:22;10.57;;;7.53;;
33987;SDS011;37428;53.580;-1.666;2023-05-18T16:37:24;12.90;;;6.78;;
33987;SDS011;37428;53.580;-1.666;2023-05-18T16:40:26;10.80;;;7.20;;
33987;SDS011;37428;53.580;-1.666;2023-05-18T16:43:28;16.45;;;7.18;;
33987;SDS011;37428;53.580;-1.666;2023-05-18T16:46:32;12.68;;;6.30;;
33987;SDS011;37428;53.580;-1.666;2023-05-18T16:49:34;12.10;;;6.90;;
33987;SDS011;37428;53.580;-1.666;2023-05-18T16:52:36;16.92;;;6.25;;
33987;SDS011;37428;53.580;-1.666;2023-05-18T16:55:38;13.48;;;7.88;;
33987;SDS011;37428;53.580;-1.666;2023-05-18T17:01:44;12.10;;;6.55;;
33987;SDS011;37428;53.580;-1.666;2023-05-18T17:04:46;8.63;;;6.78;;
33987;SDS011;37428;53.580;-1.666;2023-05-18T17:07:48;9.50;;;6.38;;
33987;SDS011;37428;53.580;-1.666;2023-05-18T17:10:51;10.50;;;6.38;;
33987;SDS011;37428;53.580;-1.666;2023-05-18T17:13:54;13.30;;;6.10;;
33987;SDS011;37428;53.580;-1.666;2023-05-18T17:16:58;14.27;;;6.25;;
33987;SDS011;37428;53.580;-1.666;2023-05-18T17:20:00;12.85;;;6.68;;
33987;SDS011;37428;53.580;-1.666;2023-05-18T17:23:03;9.82;;;6.47;;
33987;SDS011;37428;53.580;-1.666;2023-05-18T17:26:05;16.90;;;6.80;;
33987;SDS011;37428;53.580;-1.666;2023-05-18T17:29:07;12.05;;;7.10;;
33987;SDS011;37428;53.580;-1.666;2023-05-18T17:32:11;8.93;;;5.88;;
33987;SDS011;37428;53.580;-1.666;2023-05-18T17:35:13;13.60;;;6.70;;
33987;SDS011;37428;53.580;-1.666;2023-05-18T17:38:15;11.77;;;6.22;;
33987;SDS011;37428;53.580;-1.666;2023-05-18T17:41:17;13.90;;;6.47;;
33987;SDS011;37428;53.580;-1.666;2023-05-18T17:44:21;15.98;;;6.38;;
33987;SDS011;37428;53.580;-1.666;2023-05-18T17:47:24;10.38;;;6.35;;
33987;SDS011;37428;53.580;-1.666;2023-05-18T17:50:26;10.43;;;6.47;;
33987;SDS011;37428;53.580;-1.666;2023-05-18T17:53:28;11.68;;;5.97;;
33987;SDS011;37428;53.580;-1.666;2023-05-18T17:56:30;9.25;;;6.28;;
33987;SDS011;37428;53.580;-1.666;2023-05-18T17:59:34;10.80;;;5.75;;
33987;SDS011;37428;53.580;-1.666;2023-05-18T18:02:38;12.15;;;5.68;;
33987;SDS011;37428;53.580;-1.666;2023-05-18T18:05:40;13.30;;;5.65;;
33987;SDS011;37428;53.580;-1.666;2023-05-18T18:08:42;13.55;;;5.80;;
33987;SDS011;37428;53.580;-1.666;2023-05-18T18:11:44;12.02;;;5.22;;
33987;SDS011;37428;53.580;-1.666;2023-05-18T18:14:46;14.32;;;6.65;;
33987;SDS011;37428;53.580;-1.666;2023-05-18T18:17:50;9.93;;;5.68;;
33987;SDS011;37428;53.580;-1.666;2023-05-18T18:20:52;12.15;;;6.47;;
33987;SDS011;37428;53.580;-1.666;2023-05-18T18:23:54;11.25;;;6.47;;
33987;SDS011;37428;53.580;-1.666;2023-05-18T18:26:56;7.00;;;5.00;;
33987;SDS011;37428;53.580;-1.666;2023-05-18T18:29:59;10.68;;;6.03;;
33987;SDS011;37428;53.580;-1.666;2023-05-18T18:33:03;10.65;;;6.13;;
33987;SDS011;37428;53.580;-1.666;2023-05-18T18:36:05;8.02;;;5.00;;
33987;SDS011;37428;53.580;-1.666;2023-05-18T18:39:08;7.72;;;5.03;;
33987;SDS011;37428;53.580;-1.666;2023-05-18T18:42:10;11.50;;;5.28;;
33987;SDS011;37428;53.580;-1.666;2023-05-18T18:45:12;7.18;;;5.38;;
33987;SDS011;37428;53.580;-1.666;2023-05-18T18:48:16;10.15;;;5.75;;